Data for 10/19/2018

Time Sea-Level Adjusted Pressure Absolute Pressure Temperature Relative Humidity Dew Point   
(mb) (inHg) (mb) (inHg) (C) (F) (%) (C) (F)
00:05 1025 30.27 854 25.22 6.1 42.9 49 -3.9 25
00:10 1025 30.27 854 25.22 6.1 43 49 -3.8 25.1
00:15 1025 30.27 854 25.22 6.1 43 47 -4.4 24
00:20 1025 30.27 854 25.22 6.6 43.8 46 -4.3 24.2
00:25 1025 30.27 854 25.22 6.8 44.2 45 -4.5 24
00:30 1025 30.27 854 25.22 6.9 44.4 44 -4.6 23.6
00:35 1025 30.27 855 25.25 7.2 45 43 -4.5 24
00:40 1025 30.27 855 25.25 7.2 44.9 43 -4.5 23.9
00:45 1025 30.27 855 25.25 7.3 45.1 43 -4.4 24.1
00:50 1025 30.27 855 25.25 7.1 44.7 45 -3.9 24.9
00:55 1025 30.27 855 25.25 6.6 43.9 47 -3.8 25.1
01:00 1025 30.27 855 25.25 6.2 43.1 49 -3.7 25.3
01:05 1025 30.27 855 25.25 5.8 42.4 51 -3.7 25.4
01:10 1025 30.27 855 25.25 5.6 42.1 51 -3.7 25.3
01:15 1026 30.3 855 25.25 5.6 42.1 51 -3.8 25.1
01:20 1026 30.3 855 25.25 5.5 41.8 52 -3.5 25.6
01:25 1026 30.3 855 25.25 5.1 41.1 54 -3.6 25.6
01:30 1026 30.3 855 25.25 4.9 40.9 53 -3.8 25.1
01:35 1026 30.3 855 25.25 5.1 41.2 52 -3.9 25
01:40 1026 30.3 855 25.25 5.2 41.3 52 -3.8 25.2
01:45 1026 30.3 855 25.25 5.2 41.4 51 -4.1 24.7
01:50 1026 30.3 855 25.25 5.4 41.8 50 -4.1 24.7
01:55 1026 30.3 855 25.25 5.5 42 49 -4.2 24.4
02:00 1026 30.3 855 25.25 5.7 42.2 48 -4.4 24.1
02:05 1026 30.3 855 25.25 5.9 42.6 48 -4.3 24.3
02:10 1026 30.3 855 25.25 5.9 42.7 48 -4.4 24.1
02:15 1026 30.3 855 25.25 6 42.8 48 -4.3 24.2
02:20 1026 30.3 855 25.25 5.9 42.6 48 -4.2 24.5
02:25 1026 30.3 855 25.25 5.9 42.6 47 -4.5 23.8
02:30 1026 30.3 855 25.25 6.1 42.9 47 -4.4 24.1
02:35 1026 30.3 855 25.25 6 42.8 47 -4.4 24
02:40 1026 30.3 855 25.25 6.2 43.2 46 -4.4 24
02:45 1026 30.3 855 25.25 6.2 43.2 47 -4.3 24.3
02:50 1026 30.3 855 25.25 6.1 43 47 -4.2 24.4
02:55 1026 30.3 855 25.25 6 42.7 48 -4.2 24.5
03:00 1026 30.3 855 25.25 5.9 42.6 49 -4.1 24.6
03:05 1026 30.3 855 25.25 5.8 42.5 49 -4.1 24.5
03:10 1026 30.3 855 25.25 5.9 42.6 48 -4.4 24.1
03:15 1026 30.3 855 25.25 6.1 43 48 -4.1 24.6
03:20 1026 30.3 855 25.25 6 42.8 49 -3.9 24.9
03:25 1026 30.3 855 25.25 5.9 42.5 49 -4 24.8
03:30 1026 30.3 856 25.28 5.9 42.6 49 -4 24.7
03:35 1026 30.3 856 25.28 6.1 42.9 48 -4.1 24.7
03:40 1027 30.33 856 25.28 6.1 43.1 50 -3.6 25.6
03:45 1027 30.33 856 25.28 6 42.8 49 -3.8 25.1
03:50 1027 30.33 856 25.28 5.9 42.6 49 -3.8 25.1
03:55 1027 30.33 856 25.28 5.8 42.4 51 -3.6 25.5
04:00 1027 30.33 856 25.28 5.6 42.1 52 -3.5 25.7
04:05 1027 30.33 856 25.28 5.5 42 52 -3.5 25.7
04:10 1027 30.33 856 25.28 5.8 42.4 51 -3.6 25.5
04:15 1027 30.33 856 25.28 5.9 42.7 51 -3.5 25.7
04:20 1027 30.33 856 25.28 6 42.8 51 -3.4 25.9
04:25 1027 30.33 856 25.28 6 42.8 52 -3.1 26.5
04:30 1027 30.33 856 25.28 5.9 42.7 53 -3 26.6
04:35 1027 30.33 856 25.28 5.9 42.6 53 -3 26.5
04:40 1027 30.33 856 25.28 6 42.8 52 -3 26.6
04:45 1027 30.33 856 25.28 6.1 42.9 52 -3 26.6
04:50 1027 30.33 856 25.28 6 42.8 52 -3.1 26.5
04:55 1027 30.33 856 25.28 6 42.7 52 -3 26.6
05:00 1027 30.33 856 25.28 5.7 42.2 55 -2.7 27.1
05:05 1027 30.33 856 25.28 5.3 41.5 56 -2.9 26.9
05:10 1027 30.33 856 25.28 5.3 41.5 55 -3 26.7
05:15 1027 30.33 856 25.28 5.4 41.7 54 -3.2 26.3
05:20 1027 30.33 856 25.28 5.7 42.3 53 -3.1 26.4
05:25 1027 30.33 857 25.31 5.9 42.6 52 -3.2 26.2
05:30 1027 30.33 857 25.31 6 42.7 52 -3 26.5
05:35 1027 30.33 857 25.31 5.8 42.5 52 -3.3 26.1
05:40 1028 30.36 857 25.31 5.8 42.5 53 -3.1 26.4
05:45 1028 30.36 857 25.31 5.8 42.4 52 -3.3 26.1
05:50 1028 30.36 857 25.31 6 42.7 51 -3.3 26
05:55 1028 30.36 857 25.31 6 42.8 50 -3.7 25.4
06:00 1028 30.36 857 25.31 6 42.9 49 -3.7 25.3
06:05 1028 30.36 857 25.31 6.1 43 49 -3.8 25.2
06:10 1028 30.36 857 25.31 6.3 43.3 49 -3.6 25.5
06:15 1028 30.36 857 25.31 6.2 43.1 50 -3.4 25.9
06:20 1028 30.36 857 25.31 5.9 42.6 50 -3.7 25.3
06:25 1028 30.36 857 25.31 6.2 43.1 49 -3.7 25.4
06:30 1028 30.36 857 25.31 6 42.8 51 -3.3 26
06:35 1028 30.36 857 25.31 5.6 42.2 52 -3.4 25.9
06:40 1028 30.36 857 25.31 5.4 41.7 52 -3.5 25.7
06:45 1028 30.36 857 25.31 5.4 41.8 53 -3.5 25.7
06:50 1028 30.36 857 25.31 5.3 41.6 54 -3.1 26.3
06:55 1028 30.36 857 25.31 5 41.1 54 -3.4 25.8
07:00 1028 30.36 857 25.31 4.8 40.7 54 -3.6 25.6
07:05 1028 30.36 857 25.31 5.1 41.2 52 -4 24.8
07:10 1028 30.36 857 25.31 5.7 42.3 50 -3.9 25.1
07:15 1028 30.36 858 25.34 6 42.8 50 -3.7 25.3
07:20 1028 30.36 858 25.34 6.1 42.9 49 -3.8 25.2
07:25 1028 30.36 858 25.34 6.1 43 50 -3.6 25.6
07:30 1029 30.39 858 25.34 6 42.7 50 -3.6 25.5
07:35 1029 30.39 858 25.34 5.7 42.3 51 -3.6 25.6
07:40 1029 30.39 858 25.34 5.5 41.9 52 -3.5 25.6
07:45 1029 30.39 858 25.34 5.3 41.6 53 -3.5 25.7
07:50 1029 30.39 858 25.34 5.5 41.9 51 -3.9 25
07:55 1029 30.39 858 25.34 5.7 42.2 51 -3.7 25.4
08:00 1029 30.39 858 25.34 5.9 42.6 49 -4 24.7
08:05 1029 30.39 858 25.34 6.2 43.2 49 -3.8 25.1
08:10 1029 30.39 858 25.34 6.6 43.9 48 -3.5 25.7
08:15 1029 30.39 858 25.34 7 44.7 47 -3.5 25.7
08:20 1029 30.39 858 25.34 7.1 44.9 47 -3.3 26.1
08:25 1029 30.39 858 25.34 7.4 45.3 47 -3.2 26.2
08:30 1029 30.39 858 25.34 7.9 46.2 44 -3.6 25.5
08:35 1029 30.39 858 25.34 8.6 47.5 42 -3.5 25.8
08:40 1029 30.39 858 25.34 9.1 48.5 42 -3 26.5
08:45 1029 30.39 858 25.34 9.5 49 42 -2.7 27.1
08:50 1029 30.39 858 25.34 10 49.9 39 -3.3 26.1
08:55 1029 30.39 858 25.34 10.3 50.5 37 -3.8 25.2
09:00 1029 30.39 858 25.34 10.7 51.3 36 -3.7 25.3
09:05 1029 30.39 858 25.34 10.8 51.5 36 -3.7 25.4
09:10 1029 30.39 858 25.34 11.5 52.6 35 -3.4 25.8
09:15 1029 30.39 858 25.34 11.6 52.9 35 -3.5 25.7
09:20 1029 30.39 859 25.37 12 53.6 33 -3.8 25.2
09:25 1029 30.39 858 25.34 12 53.5 33 -3.9 25.1
09:30 1029 30.39 859 25.37 12.1 53.8 33 -3.7 25.3
09:35 1029 30.39 858 25.34 12.4 54.4 32 -3.7 25.3
09:40 1029 30.39 859 25.37 12.5 54.6 32 -3.5 25.7
09:45 1029 30.39 859 25.37 11.5 52.8 34 -3.8 25.1
09:50 1029 30.39 859 25.37 11.6 52.8 34 -3.8 25.2
09:55 1029 30.39 859 25.37 12.5 54.5 32 -3.6 25.5
10:00 1029 30.39 859 25.37 12.9 55.3 31 -3.7 25.3
10:05 1029 30.39 859 25.37 13.2 55.8 31 -3.6 25.5
10:10 1029 30.39 858 25.34 13.3 56 31 -3.4 25.9
10:15 1029 30.39 858 25.34 13.4 56.1 31 -3.4 25.9
10:20 1029 30.39 858 25.34 13.6 56.4 29 -4 24.8
10:25 1029 30.39 858 25.34 13.4 56.1 31 -3.5 25.7
10:30 1029 30.39 858 25.34 13.1 55.6 31 -3.4 25.9
10:35 1029 30.39 858 25.34 13.7 56.6 30 -3.4 25.9
10:40 1029 30.39 858 25.34 13.9 57 30 -3.2 26.2
10:45 1029 30.39 858 25.34 14 57.1 30 -3.4 25.9
10:50 1029 30.39 858 25.34 14.4 57.8 30 -3 26.6
10:55 1029 30.39 858 25.34 14.5 58 29 -3.3 26.1
11:00 1029 30.39 858 25.34 14.5 58.2 28 -3.7 25.3
11:05 1029 30.39 858 25.34 14.9 58.7 27 -3.7 25.3
11:10 1029 30.39 858 25.34 14.9 58.9 28 -3.2 26.3
11:15 1029 30.39 858 25.34 14.5 58.2 28 -3.6 25.5
11:20 1029 30.39 858 25.34 15.4 59.6 27 -3.4 25.9
11:25 1029 30.39 858 25.34 15.2 59.3 28 -3.2 26.3
11:30 1029 30.39 858 25.34 15.5 59.8 26 -3.8 25.2
11:35 1029 30.39 858 25.34 15.4 59.7 26 -3.7 25.3
11:40 1029 30.39 858 25.34 15.8 60.4 26 -3.8 25.1
11:45 1029 30.39 858 25.34 15.4 59.8 25 -4.2 24.4
11:50 1029 30.39 858 25.34 14.8 58.7 28 -3.6 25.5
11:55 1029 30.39 858 25.34 15 58.9 26 -4.3 24.2
12:00 1029 30.39 858 25.34 15 58.9 26 -4.5 23.8
12:05 1029 30.39 858 25.34 16.1 60.9 23 -4.7 23.5
12:10 1029 30.39 858 25.34 16.3 61.4 23 -4.5 23.9
12:15 1029 30.39 858 25.34 16.1 61 24 -4.6 23.7
12:20 1029 30.39 858 25.34 15.6 60 24 -4.8 23.3
12:25 1029 30.39 858 25.34 15.9 60.6 24 -4.6 23.7
12:30 1029 30.39 858 25.34 15.8 60.5 22 -5.6 22
12:35 1029 30.39 858 25.34 16.3 61.3 22 -5.5 22.2
12:40 1029 30.39 858 25.34 16.9 62.5 20 -6.2 20.9
12:45 1029 30.39 858 25.34 17.3 63.2 21 -5.2 22.7
12:50 1029 30.39 858 25.34 16.6 61.9 22 -5.2 22.6
12:55 1028 30.36 858 25.34 15.5 59.9 23 -5.6 21.9
13:00 1028 30.36 858 25.34 16.3 61.4 21 -5.9 21.3
13:05 1028 30.36 858 25.34 17.2 63 21 -5.2 22.6
13:10 1028 30.36 858 25.34 17.5 63.5 20 -5.5 22
13:15 1028 30.36 857 25.31 17.5 63.6 21 -5 22.9
13:20 1028 30.36 857 25.31 17.5 63.5 19 -6.2 20.9
13:25 1028 30.36 857 25.31 16.6 61.9 21 -5.9 21.4
13:30 1028 30.36 857 25.31 16.9 62.5 20 -6 21.2
13:35 1028 30.36 857 25.31 17.7 63.9 19 -6.4 20.6
13:40 1028 30.36 857 25.31 17.3 63.2 20 -5.6 21.9
13:45 1028 30.36 857 25.31 17.4 63.3 19 -6.6 20.1
13:50 1028 30.36 857 25.31 17.9 64.2 19 -6.2 20.8
13:55 1028 30.36 857 25.31 17.3 63.2 19 -6.3 20.7
14:00 1028 30.36 857 25.31 17.6 63.7 19 -6.5 20.3
14:05 1028 30.36 857 25.31 17.1 62.8 20 -6.1 21
14:10 1028 30.36 857 25.31 17.5 63.4 19 -6.4 20.5
14:15 1028 30.36 857 25.31 17.8 64.1 18 -6.9 19.5
14:20 1028 30.36 857 25.31 18.4 65.1 17 -6.8 19.7
14:25 1028 30.36 857 25.31 18.2 64.8 18 -6.7 19.9
14:30 1028 30.36 857 25.31 18.5 65.2 17 -6.6 20.1
14:35 1028 30.36 857 25.31 18.6 65.4 18 -5.9 21.3
14:40 1028 30.36 857 25.31 17.5 63.5 19 -6.2 20.9
14:45 1028 30.36 857 25.31 18.1 64.5 17 -7.2 19
14:50 1028 30.36 857 25.31 18.6 65.4 16 -7.5 18.5
14:55 1028 30.36 857 25.31 18.6 65.5 17 -6.7 19.9
15:00 1028 30.36 857 25.31 18 64.4 18 -6.7 19.9
15:05 1028 30.36 857 25.31 18.3 64.9 17 -6.9 19.5
15:10 1028 30.36 857 25.31 18.3 64.9 17 -7 19.4
15:15 1028 30.36 857 25.31 18.4 65.1 17 -6.8 19.8
15:20 1028 30.36 857 25.31 18.5 65.3 15 -8.1 17.3
15:25 1028 30.36 857 25.31 18.4 65 17 -6.8 19.7
15:30 1028 30.36 857 25.31 17.9 64.3 19 -6 21.2
15:35 1028 30.36 857 25.31 18.3 65 17 -7.3 18.9
15:40 1028 30.36 857 25.31 18.5 65.2 17 -6.6 20.2
15:45 1028 30.36 857 25.31 18.5 65.3 17 -7 19.4
15:50 1028 30.36 857 25.31 18.4 65.2 17 -7.1 19.2
15:55 1028 30.36 857 25.31 18.4 65.1 17 -7.3 18.9
16:00 1028 30.36 857 25.31 18.8 65.8 17 -6.7 19.9
16:05 1028 30.36 857 25.31 18.7 65.7 17 -6.9 19.6
16:10 1028 30.36 857 25.31 18.7 65.6 17 -7.1 19.2
16:15 1028 30.36 857 25.31 18.7 65.6 18 -6.1 21.1
16:20 1028 30.36 857 25.31 18.8 65.8 17 -6.6 20.2
16:25 1028 30.36 857 25.31 18.5 65.4 17 -6.6 20.2
16:30 1028 30.36 857 25.31 18.4 65.2 16 -7.5 18.6
16:35 1028 30.36 857 25.31 18.6 65.4 17 -7 19.3
16:40 1028 30.36 857 25.31 18.2 64.8 17 -6.8 19.7
16:45 1028 30.36 857 25.31 17.3 63.1 18 -6.8 19.7
16:50 1028 30.36 857 25.31 16.8 62.2 19 -6.9 19.6
16:55 1028 30.36 857 25.31 16.6 62 18 -7.6 18.4
17:00 1028 30.36 857 25.31 16.4 61.4 19 -7.4 18.7
17:05 1028 30.36 857 25.31 16.3 61.4 19 -7 19.4
17:10 1028 30.36 857 25.31 16.2 61.1 20 -7 19.4
17:15 1028 30.36 857 25.31 15.9 60.7 20 -7 19.3
17:20 1028 30.36 857 25.31 15.8 60.4 20 -7.1 19.2
17:25 1028 30.36 857 25.31 15.6 60.1 20 -7.1 19.3
17:30 1028 30.36 857 25.31 15.2 59.4 26 -3.9 25
17:35 1028 30.36 857 25.31 14.2 57.5 30 -3.2 26.2
17:40 1028 30.36 857 25.31 13.5 56.2 33 -2.6 27.4
17:45 1028 30.36 857 25.31 12.6 54.7 33 -3.3 26.1
17:50 1028 30.36 857 25.31 12.2 53.9 33 -3.7 25.3
17:55 1028 30.36 857 25.31 12.1 53.7 32 -3.9 25
18:00 1028 30.36 857 25.31 11.5 52.7 33 -4 24.8
18:05 1028 30.36 857 25.31 11 51.8 34 -4.2 24.5
18:10 1028 30.36 857 25.31 10.6 51.1 35 -4.2 24.4
18:15 1028 30.36 857 25.31 10.4 50.8 35 -4.5 23.9
18:20 1028 30.36 857 25.31 10.3 50.6 34 -5 22.9
18:25 1028 30.36 857 25.31 10.1 50.1 35 -4.8 23.4
18:30 1028 30.36 857 25.31 9.7 49.5 34 -5.4 22.4
18:35 1028 30.36 857 25.31 9.5 49 35 -5.1 22.8
18:40 1028 30.36 857 25.31 9.3 48.8 36 -4.9 23.1
18:45 1028 30.36 857 25.31 9.1 48.4 37 -4.8 23.3
18:50 1028 30.36 857 25.31 8.9 48 37 -4.9 23.1
18:55 1028 30.36 857 25.31 8.7 47.6 39 -4.4 24.2
19:00 1028 30.36 857 25.31 8.7 47.7 35 -5.8 21.5
19:05 1028 30.36 857 25.31 9.3 48.8 34 -5.5 22
19:10 1028 30.36 857 25.31 9.3 48.8 35 -5.3 22.5
19:15 1028 30.36 857 25.31 9 48.3 37 -5 22.9
19:20 1028 30.36 857 25.31 8.8 47.8 38 -4.8 23.4
19:25 1028 30.36 857 25.31 9.3 48.7 31 -6.9 19.7
19:30 1028 30.36 857 25.31 9.9 49.9 30 -6.8 19.8
19:35 1028 30.36 857 25.31 10.2 50.3 31 -6.2 20.8
19:40 1028 30.36 857 25.31 9.8 49.6 32 -6.1 21
19:45 1028 30.36 857 25.31 9.6 49.3 31 -6.5 20.3
19:50 1028 30.36 857 25.31 9.8 49.7 31 -6.3 20.7
19:55 1028 30.36 857 25.31 9.6 49.3 32 -6.3 20.6
20:00 1028 30.36 857 25.31 9.5 49.2 31 -6.5 20.2
20:05 1028 30.36 857 25.31 9.4 49 31 -6.8 19.7
20:10 1028 30.36 857 25.31 9.5 49.1 31 -6.7 19.9
20:15 1028 30.36 857 25.31 9.3 48.8 32 -6.6 20.1
20:20 1028 30.36 857 25.31 9 48.2 33 -6.4 20.5
20:25 1028 30.36 857 25.31 8.7 47.7 33 -6.7 19.9
20:30 1028 30.36 857 25.31 8.8 47.8 33 -6.8 19.8
20:35 1028 30.36 857 25.31 8.8 47.9 33 -6.7 20
20:40 1028 30.36 857 25.31 8.9 47.9 32 -7.1 19.3
20:45 1028 30.36 857 25.31 9.3 48.7 32 -6.7 20
20:50 1028 30.36 857 25.31 9.1 48.3 32 -6.8 19.8
20:55 1028 30.36 857 25.31 9.1 48.3 32 -6.7 19.9
21:00 1028 30.36 857 25.31 8.8 47.9 33 -6.7 19.9
21:05 1028 30.36 857 25.31 8.7 47.6 32 -6.9 19.5
21:10 1028 30.36 857 25.31 8.8 47.8 32 -6.9 19.5
21:15 1028 30.36 857 25.31 8.9 48 32 -6.7 19.9
21:20 1028 30.36 857 25.31 8.6 47.6 33 -6.8 19.8
21:25 1028 30.36 857 25.31 8.9 48 31 -7.2 19.1
21:30 1028 30.36 857 25.31 8.9 47.9 32 -6.8 19.7
21:35 1028 30.36 857 25.31 8.6 47.5 33 -6.8 19.8
21:40 1028 30.36 857 25.31 8.4 47 34 -6.7 19.9
21:45 1028 30.36 857 25.31 8 46.4 35 -6.5 20.2
21:50 1028 30.36 857 25.31 7.8 46.1 36 -6.5 20.4
21:55 1028 30.36 857 25.31 8 46.3 33 -7.2 19
22:00 1028 30.36 857 25.31 8.5 47.3 33 -7 19.4
22:05 1028 30.36 857 25.31 8.7 47.6 32 -7.1 19.3
22:10 1028 30.36 858 25.34 8.8 47.9 32 -6.8 19.8
22:15 1028 30.36 858 25.34 8.7 47.7 33 -6.7 20
22:20 1028 30.36 858 25.34 8.4 47.2 34 -6.6 20.1
22:25 1028 30.36 858 25.34 8.3 46.9 34 -6.8 19.7
22:30 1028 30.36 858 25.34 8.3 46.9 34 -6.6 20
22:35 1028 30.36 858 25.34 8.1 46.5 35 -6.4 20.5
22:40 1028 30.36 858 25.34 7.9 46.1 34 -6.9 19.6
22:45 1028 30.36 858 25.34 7.9 46.3 35 -6.4 20.4
22:50 1028 30.36 858 25.34 8 46.4 34 -7.1 19.3
22:55 1028 30.36 858 25.34 8.1 46.6 33 -7 19.4
23:00 1028 30.36 858 25.34 8 46.3 35 -6.7 19.9
23:05 1028 30.36 858 25.34 7.7 45.9 36 -6.5 20.3
23:10 1028 30.36 858 25.34 7.6 45.7 35 -7 19.4
23:15 1028 30.36 858 25.34 8 46.4 34 -7 19.4
23:20 1028 30.36 858 25.34 8 46.5 34 -6.7 19.9
23:25 1028 30.36 858 25.34 7.9 46.2 35 -6.7 20
23:30 1028 30.36 858 25.34 7.9 46.2 34 -7 19.5
23:35 1028 30.36 858 25.34 8 46.4 35 -6.5 20.3
23:40 1028 30.36 858 25.34 8.1 46.5 34 -6.8 19.7
23:45 1028 30.36 858 25.34 8 46.4 35 -6.5 20.3
23:50 1028 30.36 858 25.34 7.8 46.1 35 -6.5 20.3
23:55 1028 30.36 858 25.34 7.8 46.1 35 -6.5 20.3
24:00 1028 30.36 858 25.34 7.7 45.8 37 -6 21.2